Time,TemperatureF,DewpointF,PressureIn,WindDirection,WindDirectionDegrees,WindSpeedMPH,WindSpeedGustMPH,Humidity,HourlyPrecipIn,Conditions,Clouds,dailyrainin,SoftwareType,DateUTC
2013-02-01 00:00:00,29.3,17.1,29.57,WSW,254,20.0,20.0,60,0.00,,,0.46,Wunderground v.1.13,2013-02-01 05:00:00,
2013-02-01 00:03:00,29.4,17.2,29.57,WNW,283,11.0,20.0,60,0.00,,,0.46,Wunderground v.1.13,2013-02-01 05:03:00,
2013-02-01 00:04:00,29.4,17.2,29.57,West,278,6.0,20.0,60,0.00,,,0.46,Wunderground v.1.13,2013-02-01 05:04:00,
2013-02-01 00:10:00,29.3,17.5,29.57,WSW,245,7.0,8.0,61,0.00,,,0.46,Wunderground v.1.13,2013-02-01 05:10:00,
2013-02-01 00:15:00,29.2,17.4,29.58,West,263,4.0,6.0,61,0.00,,,0.46,Wunderground v.1.13,2013-02-01 05:15:00,
2013-02-01 00:20:00,29.2,17.4,29.58,West,281,3.0,6.0,61,0.00,,,0.46,Wunderground v.1.13,2013-02-01 05:20:00,
2013-02-01 00:26:00,29.0,17.6,29.58,SW,235,13.0,13.0,62,0.00,,,0.46,Wunderground v.1.13,2013-02-01 05:26:00,
2013-02-01 00:32:00,29.0,17.6,29.58,SW,236,14.0,14.0,62,0.00,,,0.46,Wunderground v.1.13,2013-02-01 05:32:00,
2013-02-01 00:37:00,28.9,17.5,29.59,SW,221,7.0,10.0,62,0.00,,,0.46,Wunderground v.1.13,2013-02-01 05:37:00,
2013-02-01 00:43:00,28.8,17.8,29.59,WSW,241,3.0,7.0,63,0.00,,,0.46,Wunderground v.1.13,2013-02-01 05:43:00,
2013-02-01 00:49:00,28.8,17.8,29.59,WNW,284,13.0,13.0,63,0.00,,,0.46,Wunderground v.1.13,2013-02-01 05:49:00,
2013-02-01 00:54:00,28.8,17.8,29.59,SW,230,5.0,15.0,63,0.00,,,0.00,Wunderground v.1.13,2013-02-01 05:54:00,
2013-02-01 01:00:00,28.7,17.7,29.59,West,271,12.0,12.0,63,0.00,,,0.00,Wunderground v.1.13,2013-02-01 06:00:00,
2013-02-01 01:05:00,28.5,18.2,29.60,WNW,298,4.0,6.0,65,0.00,,,0.00,Wunderground v.1.13,2013-02-01 06:05:00,
2013-02-01 01:11:00,28.4,18.1,29.59,NNW,328,5.0,8.0,65,0.00,,,0.00,Wunderground v.1.13,2013-02-01 06:11:00,
2013-02-01 01:16:00,28.3,18.0,29.60,SW,227,2.0,6.0,65,0.00,,,0.00,Wunderground v.1.13,2013-02-01 06:16:00,
2013-02-01 01:22:00,28.3,17.7,29.60,WNW,292,3.0,14.0,64,0.00,,,0.00,Wunderground v.1.13,2013-02-01 06:22:00,
2013-02-01 01:27:00,28.3,17.7,29.61,West,264,3.0,6.0,64,0.00,,,0.00,Wunderground v.1.13,2013-02-01 06:27:00,
2013-02-01 01:32:00,28.2,17.9,29.61,WNW,291,2.0,5.0,65,0.00,,,0.00,Wunderground v.1.13,2013-02-01 06:32:00,
2013-02-01 01:38:00,28.1,17.1,29.61,WSW,242,7.0,11.0,63,0.00,,,0.00,Wunderground v.1.13,2013-02-01 06:38:00,
2013-02-01 01:43:00,28.1,16.7,29.61,West,266,6.0,7.0,62,0.00,,,0.00,Wunderground v.1.13,2013-02-01 06:43:00,
2013-02-01 01:49:00,28.0,16.6,29.61,WSW,248,15.0,15.0,62,0.00,,,0.00,Wunderground v.1.13,2013-02-01 06:49:00,
2013-02-01 01:54:00,27.9,16.6,29.61,SSW,213,12.0,12.0,62,0.00,,,0.00,Wunderground v.1.13,2013-02-01 06:54:00,
2013-02-01 01:59:00,27.8,16.8,29.61,WSW,246,9.0,9.0,63,0.00,,,0.00,Wunderground v.1.13,2013-02-01 06:59:00,
2013-02-01 02:04:00,27.6,16.6,29.61,SW,232,5.0,9.0,63,0.00,,,0.00,Wunderground v.1.13,2013-02-01 07:04:00,
2013-02-01 02:09:00,27.6,16.6,29.62,WSW,243,9.0,17.0,63,0.00,,,0.00,Wunderground v.1.13,2013-02-01 07:09:00,
2013-02-01 02:14:00,27.6,16.6,29.62,West,261,7.0,17.0,63,0.00,,,0.00,Wunderground v.1.13,2013-02-01 07:14:00,
2013-02-01 02:19:00,27.6,16.6,29.63,WSW,250,11.0,13.0,63,0.00,,,0.00,Wunderground v.1.13,2013-02-01 07:19:00,
2013-02-01 02:24:00,27.6,16.6,29.63,WSW,237,5.0,15.0,63,0.00,,,0.00,Wunderground v.1.13,2013-02-01 07:24:00,
2013-02-01 02:29:00,27.6,16.6,29.62,WSW,246,8.0,22.0,63,0.00,,,0.00,Wunderground v.1.13,2013-02-01 07:29:00,
2013-02-01 02:34:00,27.6,16.6,29.62,West,259,1.0,14.0,63,0.00,,,0.00,Wunderground v.1.13,2013-02-01 07:34:00,
2013-02-01 02:39:00,27.6,16.6,29.63,West,269,5.0,14.0,63,0.00,,,0.00,Wunderground v.1.13,2013-02-01 07:39:00,
2013-02-01 02:44:00,27.5,16.5,29.62,WNW,298,6.0,11.0,63,0.00,,,0.00,Wunderground v.1.13,2013-02-01 07:44:00,
2013-02-01 02:49:00,27.4,16.4,29.63,SSW,208,5.0,13.0,63,0.00,,,0.00,Wunderground v.1.13,2013-02-01 07:49:00,
2013-02-01 02:54:00,27.4,16.8,29.63,WSW,256,11.0,16.0,64,0.00,,,0.00,Wunderground v.1.13,2013-02-01 07:54:00,
2013-02-01 02:59:00,27.3,16.7,29.63,WNW,300,6.0,13.0,64,0.00,,,0.00,Wunderground v.1.13,2013-02-01 07:59:00,
2013-02-01 03:04:00,27.2,16.3,29.63,NW,319,8.0,15.0,63,0.00,,,0.00,Wunderground v.1.13,2013-02-01 08:04:00,
2013-02-01 03:09:00,27.3,16.4,29.63,WNW,283,5.0,16.0,63,0.00,,,0.00,Wunderground v.1.13,2013-02-01 08:09:00,
2013-02-01 03:14:00,27.2,16.3,29.63,West,270,6.0,19.0,63,0.00,,,0.00,Wunderground v.1.13,2013-02-01 08:14:00,
2013-02-01 03:19:00,27.3,16.0,29.62,SW,232,13.0,18.0,62,0.00,,,0.00,Wunderground v.1.13,2013-02-01 08:19:00,
2013-02-01 03:24:00,27.2,15.5,29.62,WSW,246,6.0,15.0,61,0.00,,,0.00,Wunderground v.1.13,2013-02-01 08:24:00,
2013-02-01 03:29:00,27.2,15.5,29.63,WSW,248,4.0,15.0,61,0.00,,,0.00,Wunderground v.1.13,2013-02-01 08:29:00,
2013-02-01 03:34:00,27.1,15.4,29.63,WNW,290,3.0,13.0,61,0.00,,,0.00,Wunderground v.1.13,2013-02-01 08:34:00,
2013-02-01 03:39:00,27.1,15.8,29.63,West,276,3.0,12.0,62,0.00,,,0.00,Wunderground v.1.13,2013-02-01 08:39:00,
2013-02-01 03:44:00,27.0,15.7,29.63,West,264,3.0,14.0,62,0.00,,,0.00,Wunderground v.1.13,2013-02-01 08:44:00,
2013-02-01 03:49:00,26.9,16.0,29.63,WSW,253,8.0,9.0,63,0.00,,,0.00,Wunderground v.1.13,2013-02-01 08:49:00,
2013-02-01 03:54:00,26.9,16.3,29.64,WNW,284,3.0,11.0,64,0.00,,,0.00,Wunderground v.1.13,2013-02-01 08:54:00,
2013-02-01 03:59:00,26.8,16.2,29.64,WNW,287,10.0,15.0,64,0.00,,,0.00,Wunderground v.1.13,2013-02-01 08:59:00,
2013-02-01 04:04:00,26.8,16.2,29.64,West,275,15.0,15.0,64,0.00,,,0.00,Wunderground v.1.13,2013-02-01 09:04:00,
2013-02-01 04:09:00,26.7,16.1,29.64,West,275,4.0,9.0,64,0.00,,,0.00,Wunderground v.1.13,2013-02-01 09:09:00,
2013-02-01 04:14:00,26.7,16.1,29.64,WSW,252,3.0,14.0,64,0.00,,,0.00,Wunderground v.1.13,2013-02-01 09:14:00,
2013-02-01 04:19:00,26.6,16.4,29.64,West,264,2.0,10.0,65,0.00,,,0.00,Wunderground v.1.13,2013-02-01 09:19:00,
2013-02-01 04:24:00,26.6,16.1,29.64,WNW,295,10.0,14.0,64,0.00,,,0.00,Wunderground v.1.13,2013-02-01 09:24:00,
2013-02-01 04:30:00,26.6,16.1,29.64,West,265,3.0,6.0,64,0.00,,,0.00,Wunderground v.1.13,2013-02-01 09:30:00,
2013-02-01 04:35:00,26.6,15.7,29.64,WNW,285,6.0,6.0,63,0.00,,,0.00,Wunderground v.1.13,2013-02-01 09:35:00,
2013-02-01 04:40:00,26.6,15.7,29.65,WSW,248,5.0,6.0,63,0.00,,,0.00,Wunderground v.1.13,2013-02-01 09:40:00,
2013-02-01 04:45:00,26.6,15.7,29.64,WNW,288,5.0,6.0,63,0.00,,,0.00,Wunderground v.1.13,2013-02-01 09:45:00,
2013-02-01 04:50:00,26.6,15.3,29.65,West,276,5.0,6.0,62,0.00,,,0.00,Wunderground v.1.13,2013-02-01 09:50:00,
2013-02-01 04:55:00,26.5,14.9,29.65,SSW,198,1.0,6.0,61,0.00,,,0.00,Wunderground v.1.13,2013-02-01 09:55:00,
2013-02-01 05:00:00,26.6,14.6,29.65,WSW,252,11.0,11.0,60,0.00,,,0.00,Wunderground v.1.13,2013-02-01 10:00:00,
2013-02-01 05:05:00,26.8,14.4,29.65,West,281,5.0,9.0,59,0.00,,,0.00,Wunderground v.1.13,2013-02-01 10:05:00,
2013-02-01 05:10:00,26.9,14.5,29.66,West,272,14.0,14.0,59,0.00,,,0.00,Wunderground v.1.13,2013-02-01 10:10:00,
2013-02-01 05:15:00,26.9,14.5,29.66,WNW,295,6.0,7.0,59,0.00,,,0.00,Wunderground v.1.13,2013-02-01 10:15:00,
2013-02-01 05:20:00,26.8,14.4,29.66,WSW,250,7.0,13.0,59,0.00,,,0.00,Wunderground v.1.13,2013-02-01 10:20:00,
2013-02-01 05:25:00,26.7,13.9,29.66,WNW,302,4.0,6.0,58,0.00,,,0.00,Wunderground v.1.13,2013-02-01 10:25:00,
2013-02-01 05:30:00,26.6,13.8,29.66,WSW,248,5.0,11.0,58,0.00,,,0.00,Wunderground v.1.13,2013-02-01 10:30:00,
2013-02-01 05:35:00,26.6,13.8,29.66,West,261,9.0,10.0,58,0.00,,,0.00,Wunderground v.1.13,2013-02-01 10:35:00,
2013-02-01 05:40:00,26.6,13.8,29.66,WNW,283,2.0,6.0,58,0.00,,,0.00,Wunderground v.1.13,2013-02-01 10:40:00,
2013-02-01 05:45:00,26.5,13.7,29.66,WSW,250,3.0,6.0,58,0.00,,,0.00,Wunderground v.1.13,2013-02-01 10:45:00,
2013-02-01 05:50:00,26.5,13.3,29.66,WSW,256,6.0,7.0,57,0.00,,,0.00,Wunderground v.1.13,2013-02-01 10:50:00,
2013-02-01 05:55:00,26.6,13.0,29.66,WSW,248,6.0,12.0,56,0.00,,,0.00,Wunderground v.1.13,2013-02-01 10:55:00,
2013-02-01 06:00:00,26.7,13.1,29.67,SW,228,4.0,7.0,56,0.00,,,0.00,Wunderground v.1.13,2013-02-01 11:00:00,
2013-02-01 06:06:00,26.7,12.7,29.67,WNW,296,4.0,8.0,55,0.00,,,0.00,Wunderground v.1.13,2013-02-01 11:06:00,
2013-02-01 06:11:00,26.6,12.6,29.67,SW,228,14.0,14.0,55,0.00,,,0.00,Wunderground v.1.13,2013-02-01 11:11:00,
2013-02-01 06:16:00,26.7,12.7,29.67,WSW,253,6.0,10.0,55,0.00,,,0.00,Wunderground v.1.13,2013-02-01 11:16:00,
2013-02-01 06:21:00,26.6,12.6,29.67,West,264,6.0,14.0,55,0.00,,,0.00,Wunderground v.1.13,2013-02-01 11:21:00,
2013-02-01 06:26:00,26.6,13.0,29.68,WNW,288,4.0,6.0,56,0.00,,,0.00,Wunderground v.1.13,2013-02-01 11:26:00,
2013-02-01 06:31:00,26.4,12.8,29.68,WNW,296,5.0,7.0,56,0.00,,,0.00,Wunderground v.1.13,2013-02-01 11:31:00,
2013-02-01 06:36:00,26.3,12.7,29.68,West,280,2.0,5.0,56,0.00,,,0.00,Wunderground v.1.13,2013-02-01 11:36:00,
2013-02-01 06:41:00,26.2,13.0,29.68,WSW,254,7.0,9.0,57,0.00,,,0.00,Wunderground v.1.13,2013-02-01 11:41:00,
2013-02-01 06:46:00,26.2,13.0,29.68,WSW,257,4.0,5.0,57,0.00,,,0.00,Wunderground v.1.13,2013-02-01 11:46:00,
2013-02-01 06:51:00,26.1,13.3,29.69,WNW,284,3.0,7.0,58,0.00,,,0.00,Wunderground v.1.13,2013-02-01 11:51:00,
2013-02-01 06:56:00,26.1,12.9,29.69,West,265,5.0,11.0,57,0.00,,,0.00,Wunderground v.1.13,2013-02-01 11:56:00,
2013-02-01 07:01:00,26.0,13.2,29.69,WNW,284,7.0,11.0,58,0.00,,,0.00,Wunderground v.1.13,2013-02-01 12:01:00,
2013-02-01 07:06:00,26.0,12.8,29.70,WNW,289,6.0,7.0,57,0.00,,,0.00,Wunderground v.1.13,2013-02-01 12:06:00,
2013-02-01 07:11:00,26.0,12.8,29.70,West,266,7.0,12.0,57,0.00,,,0.00,Wunderground v.1.13,2013-02-01 12:11:00,
2013-02-01 07:16:00,26.1,12.5,29.71,West,260,12.0,14.0,56,0.00,,,0.00,Wunderground v.1.13,2013-02-01 12:16:00,
2013-02-01 07:21:00,26.1,12.5,29.71,SW,227,5.0,12.0,56,0.00,,,0.00,Wunderground v.1.13,2013-02-01 12:21:00,
2013-02-01 07:26:00,26.3,12.7,29.71,West,271,3.0,10.0,56,0.00,,,0.00,Wunderground v.1.13,2013-02-01 12:26:00,
2013-02-01 07:31:00,26.5,12.9,29.72,West,279,6.0,14.0,56,0.00,,,0.00,Wunderground v.1.13,2013-02-01 12:31:00,
2013-02-01 07:37:00,26.8,13.2,29.72,NW,311,2.0,5.0,56,0.00,,,0.00,Wunderground v.1.13,2013-02-01 12:37:00,
2013-02-01 07:42:00,27.0,13.4,29.73,South,187,1.0,10.0,56,0.00,,,0.00,Wunderground v.1.13,2013-02-01 12:42:00,
2013-02-01 07:47:00,27.3,13.2,29.73,West,275,2.0,9.0,55,0.00,,,0.00,Wunderground v.1.13,2013-02-01 12:47:00,
2013-02-01 07:52:00,27.2,12.7,29.73,WSW,252,9.0,17.0,54,0.00,,,0.00,Wunderground v.1.13,2013-02-01 12:52:00,
2013-02-01 07:57:00,27.1,13.1,29.74,NNW,331,5.0,7.0,55,0.00,,,0.00,Wunderground v.1.13,2013-02-01 12:57:00,
2013-02-01 08:02:00,27.1,12.6,29.74,West,267,8.0,18.0,54,0.00,,,0.00,Wunderground v.1.13,2013-02-01 13:02:00,
2013-02-01 08:07:00,27.0,12.1,29.74,WNW,282,7.0,12.0,53,0.00,,,0.00,Wunderground v.1.13,2013-02-01 13:07:00,
2013-02-01 08:12:00,27.0,12.5,29.74,WSW,252,12.0,12.0,54,0.00,,,0.00,Wunderground v.1.13,2013-02-01 13:12:00,
2013-02-01 08:17:00,27.0,11.7,29.75,WNW,298,6.0,17.0,52,0.00,,,0.00,Wunderground v.1.13,2013-02-01 13:17:00,
2013-02-01 08:22:00,27.1,11.8,29.75,West,269,7.0,14.0,52,0.00,,,0.00,Wunderground v.1.13,2013-02-01 13:22:00,
2013-02-01 08:27:00,27.2,11.9,29.75,West,272,10.0,10.0,52,0.00,,,0.00,Wunderground v.1.13,2013-02-01 13:27:00,
2013-02-01 08:32:00,27.5,11.7,29.75,WSW,237,9.0,16.0,51,0.00,,,0.00,Wunderground v.1.13,2013-02-01 13:32:00,
2013-02-01 08:37:00,27.6,11.8,29.75,WSW,246,5.0,11.0,51,0.00,,,0.00,Wunderground v.1.13,2013-02-01 13:37:00,
2013-02-01 08:42:00,28.1,12.3,29.76,WNW,289,5.0,12.0,51,0.00,,,0.00,Wunderground v.1.13,2013-02-01 13:42:00,
2013-02-01 08:47:00,28.8,12.5,29.75,NW,325,8.0,22.0,50,0.00,,,0.00,Wunderground v.1.13,2013-02-01 13:47:00,
2013-02-01 08:52:00,29.2,12.4,29.76,WSW,241,13.0,16.0,49,0.00,,,0.00,Wunderground v.1.13,2013-02-01 13:52:00,
2013-02-01 08:57:00,28.8,10.6,29.76,West,274,4.0,20.0,46,0.00,,,0.00,Wunderground v.1.13,2013-02-01 13:57:00,
2013-02-01 09:02:00,28.8,11.1,29.77,West,270,5.0,17.0,47,0.00,,,0.00,Wunderground v.1.13,2013-02-01 14:02:00,
2013-02-01 09:07:00,29.1,11.4,29.77,West,279,7.0,21.0,47,0.00,,,0.00,Wunderground v.1.13,2013-02-01 14:07:00,
2013-02-01 09:12:00,29.1,10.9,29.77,WSW,247,10.0,15.0,46,0.00,,,0.00,Wunderground v.1.13,2013-02-01 14:12:00,
2013-02-01 09:17:00,28.8,10.6,29.77,NW,307,4.0,16.0,46,0.00,,,0.00,Wunderground v.1.13,2013-02-01 14:17:00,
2013-02-01 09:22:00,29.1,10.9,29.77,WNW,299,10.0,12.0,46,0.00,,,0.00,Wunderground v.1.13,2013-02-01 14:22:00,
2013-02-01 09:27:00,29.5,10.7,29.77,West,270,2.0,14.0,45,0.00,,,0.00,Wunderground v.1.13,2013-02-01 14:27:00,
2013-02-01 09:32:00,29.8,11.5,29.78,West,274,2.0,17.0,46,0.00,,,0.00,Wunderground v.1.13,2013-02-01 14:32:00,
2013-02-01 09:37:00,30.3,11.5,29.78,West,275,4.0,16.0,45,0.00,,,0.00,Wunderground v.1.13,2013-02-01 14:37:00,
2013-02-01 09:42:00,30.8,11.4,29.78,West,278,17.0,20.0,44,0.00,,,0.00,Wunderground v.1.13,2013-02-01 14:42:00,
2013-02-01 09:47:00,30.4,11.1,29.78,West,272,7.0,14.0,44,0.00,,,0.00,Wunderground v.1.13,2013-02-01 14:47:00,
2013-02-01 09:52:00,29.7,10.4,29.78,West,269,4.0,15.0,44,0.00,,,0.00,Wunderground v.1.13,2013-02-01 14:52:00,
2013-02-01 09:57:00,29.3,10.6,29.79,NW,304,11.0,13.0,45,0.00,,,0.00,Wunderground v.1.13,2013-02-01 14:57:00,
2013-02-01 10:02:00,29.7,10.9,29.79,NW,318,6.0,17.0,45,0.00,,,0.00,Wunderground v.1.13,2013-02-01 15:02:00,
2013-02-01 10:07:00,30.1,11.3,29.79,West,263,6.0,20.0,45,0.00,,,0.00,Wunderground v.1.13,2013-02-01 15:07:00,
2013-02-01 10:12:00,30.5,11.1,29.79,NNW,331,9.0,12.0,44,0.00,,,0.00,Wunderground v.1.13,2013-02-01 15:12:00,
2013-02-01 10:17:00,30.5,10.1,29.79,WNW,287,10.0,21.0,42,0.00,,,0.00,Wunderground v.1.13,2013-02-01 15:17:00,
2013-02-01 10:22:00,30.4,10.5,29.79,NW,309,7.0,16.0,43,0.00,,,0.00,Wunderground v.1.13,2013-02-01 15:22:00,
2013-02-01 10:27:00,30.4,10.0,29.79,SW,228,5.0,19.0,42,0.00,,,0.00,Wunderground v.1.13,2013-02-01 15:27:00,
2013-02-01 10:32:00,30.8,10.4,29.79,NW,318,10.0,24.0,42,0.00,,,0.00,Wunderground v.1.13,2013-02-01 15:32:00,
2013-02-01 10:37:00,31.2,10.7,29.79,NW,311,11.0,15.0,42,0.00,,,0.00,Wunderground v.1.13,2013-02-01 15:37:00,
2013-02-01 10:42:00,31.5,11.0,29.79,WNW,296,10.0,12.0,42,0.00,,,0.00,Wunderground v.1.13,2013-02-01 15:42:00,
2013-02-01 10:47:00,31.7,11.2,29.78,WNW,298,10.0,11.0,42,0.00,,,0.00,Wunderground v.1.13,2013-02-01 15:47:00,
2013-02-01 10:52:00,31.4,10.4,29.78,WNW,296,15.0,22.0,41,0.00,,,0.00,Wunderground v.1.13,2013-02-01 15:52:00,
2013-02-01 10:57:00,31.1,10.1,29.78,NW,304,9.0,21.0,41,0.00,,,0.00,Wunderground v.1.13,2013-02-01 15:57:00,
2013-02-01 11:02:00,31.0,10.6,29.79,WNW,303,17.0,18.0,42,0.00,,,0.00,Wunderground v.1.13,2013-02-01 16:02:00,
2013-02-01 11:07:00,31.0,10.0,29.78,North,349,9.0,16.0,41,0.00,,,0.00,Wunderground v.1.13,2013-02-01 16:07:00,
2013-02-01 11:12:00,31.1,10.1,29.78,NNW,346,9.0,16.0,41,0.00,,,0.00,Wunderground v.1.13,2013-02-01 16:12:00,
2013-02-01 11:17:00,31.1,9.6,29.77,NW,320,10.0,20.0,40,0.00,,,0.00,Wunderground v.1.13,2013-02-01 16:17:00,
2013-02-01 11:22:00,31.6,10.6,29.77,WNW,299,7.0,21.0,41,0.00,,,0.00,Wunderground v.1.13,2013-02-01 16:22:00,
2013-02-01 11:27:00,31.5,9.9,29.77,West,274,5.0,22.0,40,0.00,,,0.00,Wunderground v.1.13,2013-02-01 16:27:00,
2013-02-01 11:32:00,31.5,10.5,29.76,NW,306,15.0,22.0,41,0.00,,,0.00,Wunderground v.1.13,2013-02-01 16:32:00,
2013-02-01 11:37:00,31.4,9.8,29.76,West,276,6.0,18.0,40,0.00,,,0.00,Wunderground v.1.13,2013-02-01 16:37:00,
2013-02-01 11:42:00,31.4,9.8,29.76,West,279,13.0,24.0,40,0.00,,,0.00,Wunderground v.1.13,2013-02-01 16:42:00,
2013-02-01 11:47:00,31.9,10.3,29.76,WNW,296,10.0,12.0,40,0.00,,,0.00,Wunderground v.1.13,2013-02-01 16:47:00,
2013-02-01 11:52:00,32.1,10.5,29.76,WSW,237,9.0,16.0,40,0.00,,,0.00,Wunderground v.1.13,2013-02-01 16:52:00,
2013-02-01 11:57:00,32.3,10.6,29.76,West,261,7.0,18.0,40,0.00,,,0.00,Wunderground v.1.13,2013-02-01 16:57:00,
2013-02-01 12:02:00,32.6,10.3,29.77,West,271,7.0,16.0,39,0.00,,,0.00,Wunderground v.1.13,2013-02-01 17:02:00,
2013-02-01 12:07:00,32.5,10.8,29.77,WNW,302,10.0,16.0,40,0.00,,,0.00,Wunderground v.1.13,2013-02-01 17:07:00,
2013-02-01 12:12:00,32.3,10.1,29.77,SW,223,7.0,19.0,39,0.00,,,0.00,Wunderground v.1.13,2013-02-01 17:12:00,
2013-02-01 12:17:00,32.1,9.9,29.77,WNW,292,14.0,24.0,39,0.00,,,0.00,Wunderground v.1.13,2013-02-01 17:17:00,
2013-02-01 12:22:00,32.4,10.7,29.77,West,270,6.0,16.0,40,0.00,,,0.00,Wunderground v.1.13,2013-02-01 17:22:00,
2013-02-01 12:27:00,32.5,10.3,29.77,West,277,12.0,22.0,39,0.00,,,0.00,Wunderground v.1.13,2013-02-01 17:27:00,
2013-02-01 12:32:00,32.8,9.9,29.77,WNW,299,10.0,17.0,38,0.00,,,0.00,Wunderground v.1.13,2013-02-01 17:32:00,
2013-02-01 12:37:00,32.5,9.7,29.77,NW,315,9.0,20.0,38,0.00,,,0.00,Wunderground v.1.13,2013-02-01 17:37:00,
2013-02-01 12:42:00,31.7,9.0,29.77,West,277,3.0,19.0,38,0.00,,,0.00,Wunderground v.1.13,2013-02-01 17:42:00,
2013-02-01 12:47:00,31.2,9.1,29.76,WNW,284,4.0,13.0,39,0.00,,,0.00,Wunderground v.1.13,2013-02-01 17:47:00,
2013-02-01 12:52:00,31.1,9.6,29.76,WNW,303,12.0,19.0,40,0.00,,,0.00,Wunderground v.1.13,2013-02-01 17:52:00,
2013-02-01 12:58:00,31.1,9.6,29.76,WNW,289,7.0,21.0,40,0.00,,,0.00,Wunderground v.1.13,2013-02-01 17:58:00,
2013-02-01 13:03:00,30.8,8.7,29.75,WNW,283,11.0,17.0,39,0.00,,,0.00,Wunderground v.1.13,2013-02-01 18:03:00,
2013-02-01 13:08:00,30.5,9.0,29.75,WNW,292,5.0,18.0,40,0.00,,,0.00,Wunderground v.1.13,2013-02-01 18:08:00,
2013-02-01 13:13:00,30.5,9.0,29.75,West,277,14.0,17.0,40,0.00,,,0.00,Wunderground v.1.13,2013-02-01 18:13:00,
2013-02-01 13:18:00,31.1,9.6,29.75,WNW,300,10.0,19.0,40,0.00,,,0.00,Wunderground v.1.13,2013-02-01 18:18:00,
2013-02-01 13:23:00,31.2,9.6,29.75,NNW,337,7.0,15.0,40,0.00,,,0.00,Wunderground v.1.13,2013-02-01 18:23:00,
2013-02-01 13:28:00,30.8,8.7,29.74,WNW,289,10.0,16.0,39,0.00,,,0.00,Wunderground v.1.13,2013-02-01 18:28:00,
2013-02-01 13:33:00,30.4,9.5,29.75,West,279,20.0,21.0,41,0.00,,,0.00,Wunderground v.1.13,2013-02-01 18:33:00,
2013-02-01 13:38:00,31.0,10.6,29.75,WNW,292,5.0,23.0,42,0.00,,,0.00,Wunderground v.1.13,2013-02-01 18:38:00,
2013-02-01 13:43:00,31.5,10.5,29.75,West,276,11.0,18.0,41,0.00,,,0.00,Wunderground v.1.13,2013-02-01 18:43:00,
2013-02-01 13:48:00,31.9,10.3,29.75,WNW,290,14.0,19.0,40,0.00,,,0.00,Wunderground v.1.13,2013-02-01 18:48:00,
2013-02-01 13:53:00,32.4,10.7,29.75,SW,236,5.0,15.0,40,0.00,,,0.00,Wunderground v.1.13,2013-02-01 18:53:00,
2013-02-01 13:58:00,32.1,9.9,29.75,WNW,291,10.0,18.0,39,0.00,,,0.00,Wunderground v.1.13,2013-02-01 18:58:00,
2013-02-01 14:03:00,31.5,9.4,29.76,WNW,298,14.0,19.0,39,0.00,,,0.00,Wunderground v.1.13,2013-02-01 19:03:00,
2013-02-01 14:08:00,31.1,9.6,29.76,West,276,7.0,19.0,40,0.00,,,0.00,Wunderground v.1.13,2013-02-01 19:08:00,
2013-02-01 14:13:00,31.8,10.2,29.76,NW,317,10.0,15.0,40,0.00,,,0.00,Wunderground v.1.13,2013-02-01 19:13:00,
2013-02-01 14:18:00,32.5,10.3,29.76,WNW,294,11.0,18.0,39,0.00,,,0.00,Wunderground v.1.13,2013-02-01 19:18:00,
2013-02-01 14:23:00,32.1,9.9,29.76,WNW,288,12.0,16.0,39,0.00,,,0.00,Wunderground v.1.13,2013-02-01 19:23:00,
2013-02-01 14:28:00,31.0,8.9,29.77,West,265,13.0,17.0,39,0.00,,,0.00,Wunderground v.1.13,2013-02-01 19:28:00,
2013-02-01 14:33:00,30.2,8.7,29.77,West,265,11.0,17.0,40,0.00,,,0.00,Wunderground v.1.13,2013-02-01 19:33:00,
2013-02-01 14:38:00,30.5,9.6,29.77,West,279,6.0,16.0,41,0.00,,,0.00,Wunderground v.1.13,2013-02-01 19:38:00,
2013-02-01 14:43:00,30.9,9.4,29.77,West,272,6.0,15.0,40,0.00,,,0.00,Wunderground v.1.13,2013-02-01 19:43:00,
2013-02-01 14:48:00,31.6,10.0,29.77,WNW,296,9.0,16.0,40,0.00,,,0.00,Wunderground v.1.13,2013-02-01 19:48:00,
2013-02-01 14:53:00,32.1,9.9,29.77,WNW,286,5.0,18.0,39,0.00,,,0.00,Wunderground v.1.13,2013-02-01 19:53:00,
2013-02-01 14:58:00,32.3,10.1,29.77,WNW,298,4.0,16.0,39,0.00,,,0.00,Wunderground v.1.13,2013-02-01 19:58:00,
2013-02-01 15:03:00,32.6,10.3,29.78,WNW,302,13.0,15.0,39,0.00,,,0.00,Wunderground v.1.13,2013-02-01 20:03:00,
2013-02-01 15:08:00,32.6,10.3,29.78,WNW,299,11.0,17.0,39,0.00,,,0.00,Wunderground v.1.13,2013-02-01 20:08:00,
2013-02-01 15:13:00,32.8,10.5,29.78,West,274,11.0,16.0,39,0.00,,,0.00,Wunderground v.1.13,2013-02-01 20:13:00,
2013-02-01 15:18:00,33.0,10.1,29.79,NW,304,7.0,13.0,38,0.00,,,0.00,Wunderground v.1.13,2013-02-01 20:18:00,
2013-02-01 15:23:00,32.4,9.0,29.79,NNW,333,5.0,17.0,37,0.00,,,0.00,Wunderground v.1.13,2013-02-01 20:23:00,
2013-02-01 15:28:00,31.5,8.8,29.79,NW,318,5.0,16.0,38,0.00,,,0.00,Wunderground v.1.13,2013-02-01 20:28:00,
2013-02-01 15:33:00,31.2,9.1,29.80,NW,325,4.0,17.0,39,0.00,,,0.00,Wunderground v.1.13,2013-02-01 20:33:00,
2013-02-01 15:39:00,31.1,9.0,29.80,WNW,282,4.0,18.0,39,0.00,,,0.00,Wunderground v.1.13,2013-02-01 20:39:00,
2013-02-01 15:44:00,30.4,8.4,29.80,WNW,294,15.0,18.0,39,0.00,,,0.00,Wunderground v.1.13,2013-02-01 20:44:00,
2013-02-01 15:49:00,30.1,9.2,29.81,West,275,9.0,17.0,41,0.00,,,0.00,Wunderground v.1.13,2013-02-01 20:49:00,
2013-02-01 15:54:00,29.8,8.9,29.81,NW,315,13.0,16.0,41,0.00,,,0.00,Wunderground v.1.13,2013-02-01 20:54:00,
2013-02-01 15:59:00,29.5,8.1,29.81,NW,305,13.0,20.0,40,0.00,,,0.00,Wunderground v.1.13,2013-02-01 20:59:00,
2013-02-01 16:04:00,29.3,8.5,29.82,WNW,298,13.0,15.0,41,0.00,,,0.00,Wunderground v.1.13,2013-02-01 21:04:00,
2013-02-01 16:09:00,29.3,9.0,29.82,NW,311,11.0,15.0,42,0.00,,,0.00,Wunderground v.1.13,2013-02-01 21:09:00,
2013-02-01 16:14:00,29.3,9.0,29.83,WNW,292,7.0,16.0,42,0.00,,,0.00,Wunderground v.1.13,2013-02-01 21:14:00,
2013-02-01 16:19:00,29.3,9.0,29.83,NNW,331,9.0,13.0,42,0.00,,,0.00,Wunderground v.1.13,2013-02-01 21:19:00,
2013-02-01 16:24:00,29.1,9.4,29.83,WNW,296,12.0,14.0,43,0.00,,,0.00,Wunderground v.1.13,2013-02-01 21:24:00,
2013-02-01 16:29:00,29.0,9.3,29.84,WNW,290,7.0,14.0,43,0.00,,,0.00,Wunderground v.1.13,2013-02-01 21:29:00,
2013-02-01 16:34:00,28.9,9.2,29.84,NNE,14,8.0,17.0,43,0.00,,,0.00,Wunderground v.1.13,2013-02-01 21:34:00,
2013-02-01 16:39:00,28.8,9.1,29.85,NW,308,7.0,12.0,43,0.00,,,0.00,Wunderground v.1.13,2013-02-01 21:39:00,
2013-02-01 16:44:00,28.6,8.4,29.85,NNW,346,6.0,17.0,42,0.00,,,0.00,Wunderground v.1.13,2013-02-01 21:44:00,
2013-02-01 16:49:00,28.3,8.1,29.86,NW,319,11.0,16.0,42,0.00,,,0.00,Wunderground v.1.13,2013-02-01 21:49:00,
2013-02-01 16:54:00,28.1,7.9,29.86,NNW,346,3.0,14.0,42,0.00,,,0.00,Wunderground v.1.13,2013-02-01 21:54:00,
2013-02-01 16:59:00,28.0,8.4,29.87,NW,315,7.0,12.0,43,0.00,,,0.00,Wunderground v.1.13,2013-02-01 21:59:00,
2013-02-01 17:04:00,27.9,8.8,29.87,WNW,292,6.0,11.0,44,0.00,,,0.00,Wunderground v.1.13,2013-02-01 22:04:00,
2013-02-01 17:09:00,27.8,8.7,29.88,NNW,342,4.0,11.0,44,0.00,,,0.00,Wunderground v.1.13,2013-02-01 22:09:00,
2013-02-01 17:14:00,27.7,8.6,29.88,NW,317,12.0,12.0,44,0.00,,,0.00,Wunderground v.1.13,2013-02-01 22:14:00,
2013-02-01 17:19:00,27.6,8.5,29.89,WNW,299,5.0,14.0,44,0.00,,,0.00,Wunderground v.1.13,2013-02-01 22:19:00,
2013-02-01 17:24:00,27.5,8.9,29.89,NNW,348,2.0,8.0,45,0.00,,,0.00,Wunderground v.1.13,2013-02-01 22:24:00,
2013-02-01 17:29:00,27.4,8.8,29.90,NW,306,2.0,13.0,45,0.00,,,0.00,Wunderground v.1.13,2013-02-01 22:29:00,
2013-02-01 17:34:00,27.2,8.6,29.90,NNW,331,5.0,9.0,45,0.00,,,0.00,Wunderground v.1.13,2013-02-01 22:34:00,
2013-02-01 17:39:00,27.1,8.0,29.90,NW,305,11.0,11.0,44,0.00,,,0.00,Wunderground v.1.13,2013-02-01 22:39:00,
2013-02-01 17:44:00,27.0,8.9,29.91,West,259,11.0,14.0,46,0.00,,,0.00,Wunderground v.1.13,2013-02-01 22:44:00,
2013-02-01 17:49:00,26.9,8.8,29.91,WNW,299,4.0,15.0,46,0.00,,,0.00,Wunderground v.1.13,2013-02-01 22:49:00,
2013-02-01 17:54:00,26.7,8.7,29.92,WNW,286,2.0,13.0,46,0.00,,,0.00,Wunderground v.1.13,2013-02-01 22:54:00,
2013-02-01 17:59:00,26.5,8.5,29.93,WNW,300,5.0,13.0,46,0.00,,,0.00,Wunderground v.1.13,2013-02-01 22:59:00,
2013-02-01 18:04:00,26.3,7.8,29.93,West,278,8.0,16.0,45,0.00,,,0.00,Wunderground v.1.13,2013-02-01 23:04:00,
2013-02-01 18:09:00,26.3,7.8,29.94,NW,326,6.0,15.0,45,0.00,,,0.00,Wunderground v.1.13,2013-02-01 23:09:00,
2013-02-01 18:14:00,26.2,7.7,29.94,WNW,295,6.0,12.0,45,0.00,,,0.00,Wunderground v.1.13,2013-02-01 23:14:00,
2013-02-01 18:19:00,26.1,8.1,29.94,NW,313,3.0,15.0,46,0.00,,,0.00,Wunderground v.1.13,2013-02-01 23:19:00,
2013-02-01 18:24:00,26.0,8.5,29.95,NW,304,3.0,9.0,47,0.00,,,0.00,Wunderground v.1.13,2013-02-01 23:24:00,
2013-02-01 18:29:00,25.9,8.4,29.95,NW,309,6.0,12.0,47,0.00,,,0.00,Wunderground v.1.13,2013-02-01 23:29:00,
2013-02-01 18:35:00,25.8,8.3,29.96,NW,314,4.0,9.0,47,0.00,,,0.00,Wunderground v.1.13,2013-02-01 23:35:00,
2013-02-01 18:40:00,25.7,7.7,29.96,NW,319,4.0,5.0,46,0.00,,,0.00,Wunderground v.1.13,2013-02-01 23:40:00,
2013-02-01 18:45:00,25.7,8.2,29.96,North,355,5.0,5.0,47,0.00,,,0.00,Wunderground v.1.13,2013-02-01 23:45:00,
2013-02-01 18:50:00,25.6,8.1,29.97,NNW,348,4.0,4.0,47,0.00,,,0.00,Wunderground v.1.13,2013-02-01 23:50:00,
2013-02-01 18:55:00,25.5,8.0,29.97,NW,315,3.0,4.0,47,0.00,,,0.00,Wunderground v.1.13,2013-02-01 23:55:00,
2013-02-01 19:00:00,25.4,8.4,29.97,WNW,299,1.0,4.0,48,0.00,,,0.00,Wunderground v.1.13,2013-02-02 00:00:00,
2013-02-01 19:05:00,25.3,8.3,29.97,NNW,345,3.0,4.0,48,0.00,,,0.00,Wunderground v.1.13,2013-02-02 00:05:00,
2013-02-01 19:10:00,25.2,8.2,29.98,NNW,331,2.0,4.0,48,0.00,,,0.00,Wunderground v.1.13,2013-02-02 00:10:00,
2013-02-01 19:15:00,25.2,8.2,29.98,NNW,344,3.0,5.0,48,0.00,,,0.00,Wunderground v.1.13,2013-02-02 00:15:00,
2013-02-01 19:20:00,25.1,8.1,29.98,NNW,340,3.0,3.0,48,0.00,,,0.00,Wunderground v.1.13,2013-02-02 00:20:00,
2013-02-01 19:25:00,24.9,8.0,29.98,NNW,340,3.0,5.0,48,0.00,,,0.00,Wunderground v.1.13,2013-02-02 00:25:00,
2013-02-01 19:30:00,24.8,7.9,29.98,NNW,340,2.0,3.0,48,0.00,,,0.00,Wunderground v.1.13,2013-02-02 00:30:00,
2013-02-01 19:35:00,24.8,8.3,29.99,NNW,340,1.0,2.0,49,0.00,,,0.00,Wunderground v.1.13,2013-02-02 00:35:00,
2013-02-01 19:40:00,24.7,8.7,29.99,NNW,340,2.0,2.0,50,0.00,,,0.00,Wunderground v.1.13,2013-02-02 00:40:00,
2013-02-01 19:45:00,24.6,8.6,29.99,NW,305,1.0,1.0,50,0.00,,,0.00,Wunderground v.1.13,2013-02-02 00:45:00,
2013-02-01 19:50:00,24.5,9.4,29.99,NW,305,0.0,1.0,52,0.00,,,0.00,Wunderground v.1.13,2013-02-02 00:50:00,
2013-02-01 19:55:00,24.4,9.3,30.00,NW,304,0.0,0.0,52,0.00,,,0.00,Wunderground v.1.13,2013-02-02 00:55:00,
2013-02-01 20:00:00,24.4,9.3,30.00,NW,305,1.0,1.0,52,0.00,,,0.00,Wunderground v.1.13,2013-02-02 01:00:00,
2013-02-01 20:05:00,24.2,8.7,30.00,West,271,2.0,3.0,51,0.00,,,0.00,Wunderground v.1.13,2013-02-02 01:05:00,
2013-02-01 20:10:00,24.2,8.7,30.00,WNW,296,0.0,3.0,51,0.00,,,0.00,Wunderground v.1.13,2013-02-02 01:10:00,
2013-02-01 20:15:00,24.3,8.7,30.00,NW,323,3.0,6.0,51,0.00,,,0.00,Wunderground v.1.13,2013-02-02 01:15:00,
2013-02-01 20:20:00,24.4,9.3,30.00,NW,319,9.0,14.0,52,0.00,,,0.00,Wunderground v.1.13,2013-02-02 01:20:00,
2013-02-01 20:25:00,24.6,9.0,30.01,NW,304,5.0,13.0,51,0.00,,,0.00,Wunderground v.1.13,2013-02-02 01:25:00,
2013-02-01 20:30:00,24.8,9.2,30.01,WNW,284,5.0,15.0,51,0.00,,,0.00,Wunderground v.1.13,2013-02-02 01:30:00,
2013-02-01 20:35:00,24.8,9.6,30.01,WNW,298,10.0,10.0,52,0.00,,,0.00,Wunderground v.1.13,2013-02-02 01:35:00,
2013-02-01 20:40:00,24.7,9.5,30.01,WSW,256,11.0,11.0,52,0.00,,,0.00,Wunderground v.1.13,2013-02-02 01:40:00,
2013-02-01 20:45:00,24.5,8.9,30.01,West,281,3.0,11.0,51,0.00,,,0.00,Wunderground v.1.13,2013-02-02 01:45:00,
2013-02-01 20:50:00,24.5,8.9,30.01,West,274,4.0,9.0,51,0.00,,,0.00,Wunderground v.1.13,2013-02-02 01:50:00,
2013-02-01 20:55:00,24.4,8.8,30.02,WNW,284,4.0,6.0,51,0.00,,,0.00,Wunderground v.1.13,2013-02-02 01:55:00,
2013-02-01 21:00:00,24.3,8.7,30.02,WNW,290,4.0,8.0,51,0.00,,,0.00,Wunderground v.1.13,2013-02-02 02:00:00,
2013-02-01 21:06:00,24.2,8.2,30.02,West,273,1.0,4.0,50,0.00,,,0.00,Wunderground v.1.13,2013-02-02 02:06:00,
2013-02-01 21:11:00,24.0,7.1,30.03,WNW,287,4.0,7.0,48,0.00,,,0.00,Wunderground v.1.13,2013-02-02 02:11:00,
2013-02-01 21:15:00,23.8,6.9,30.03,West,276,10.0,11.0,48,0.00,,,0.00,Wunderground v.1.13,2013-02-02 02:15:00,
2013-02-01 21:20:00,23.7,6.8,30.03,West,263,5.0,6.0,48,0.00,,,0.00,Wunderground v.1.13,2013-02-02 02:20:00,
2013-02-01 21:25:00,23.6,6.8,30.03,West,273,5.0,13.0,48,0.00,,,0.00,Wunderground v.1.13,2013-02-02 02:25:00,
2013-02-01 21:31:00,23.4,6.1,30.04,West,276,2.0,11.0,47,0.00,,,0.00,Wunderground v.1.13,2013-02-02 02:31:00,
2013-02-01 21:36:00,23.4,6.1,30.03,WNW,289,4.0,15.0,47,0.00,,,0.00,Wunderground v.1.13,2013-02-02 02:36:00,
2013-02-01 21:41:00,23.3,6.5,30.03,WNW,301,2.0,5.0,48,0.00,,,0.00,Wunderground v.1.13,2013-02-02 02:41:00,
2013-02-01 21:46:00,23.2,6.4,30.04,NW,306,6.0,6.0,48,0.00,,,0.00,Wunderground v.1.13,2013-02-02 02:46:00,
2013-02-01 21:51:00,23.0,6.7,30.04,WNW,299,3.0,12.0,49,0.00,,,0.00,Wunderground v.1.13,2013-02-02 02:51:00,
2013-02-01 21:56:00,22.9,6.6,30.04,West,274,3.0,7.0,49,0.00,,,0.00,Wunderground v.1.13,2013-02-02 02:56:00,
2013-02-01 22:01:00,22.7,6.8,30.04,WNW,294,1.0,3.0,50,0.00,,,0.00,Wunderground v.1.13,2013-02-02 03:01:00,
2013-02-01 22:06:00,22.6,6.7,30.04,West,264,8.0,9.0,50,0.00,,,0.00,Wunderground v.1.13,2013-02-02 03:06:00,
2013-02-01 22:11:00,22.6,6.3,30.05,WNW,289,4.0,6.0,49,0.00,,,0.00,Wunderground v.1.13,2013-02-02 03:11:00,
2013-02-01 22:16:00,22.6,6.3,30.04,NW,314,6.0,11.0,49,0.00,,,0.00,Wunderground v.1.13,2013-02-02 03:16:00,
2013-02-01 22:21:00,22.7,6.4,30.05,West,281,3.0,7.0,49,0.00,,,0.00,Wunderground v.1.13,2013-02-02 03:21:00,
2013-02-01 22:26:00,22.7,5.9,30.05,West,278,2.0,5.0,48,0.00,,,0.00,Wunderground v.1.13,2013-02-02 03:26:00,
2013-02-01 22:31:00,22.6,6.3,30.05,NW,311,2.0,4.0,49,0.00,,,0.00,Wunderground v.1.13,2013-02-02 03:31:00,
2013-02-01 22:36:00,22.5,6.2,30.05,NW,310,1.0,2.0,49,0.00,,,0.00,Wunderground v.1.13,2013-02-02 03:36:00,
2013-02-01 22:41:00,22.4,6.5,30.05,WNW,288,2.0,4.0,50,0.00,,,0.00,Wunderground v.1.13,2013-02-02 03:41:00,
2013-02-01 22:46:00,22.2,5.9,30.05,WNW,289,0.0,2.0,49,0.00,,,0.00,Wunderground v.1.13,2013-02-02 03:46:00,
2013-02-01 22:51:00,22.1,6.3,30.05,WNW,288,0.0,3.0,50,0.00,,,0.00,Wunderground v.1.13,2013-02-02 03:51:00,
2013-02-01 22:56:00,22.0,6.2,30.05,WNW,286,3.0,5.0,50,0.00,,,0.00,Wunderground v.1.13,2013-02-02 03:56:00,
2013-02-01 23:01:00,21.8,6.4,30.06,WNW,286,2.0,3.0,51,0.00,,,0.00,Wunderground v.1.13,2013-02-02 04:01:00,
2013-02-01 23:06:00,21.8,6.0,30.06,West,267,2.0,3.0,50,0.00,,,0.00,Wunderground v.1.13,2013-02-02 04:06:00,
2013-02-01 23:11:00,21.8,6.4,30.06,West,271,2.0,3.0,51,0.00,,,0.00,Wunderground v.1.13,2013-02-02 04:11:00,
2013-02-01 23:16:00,21.7,6.3,30.06,WNW,286,2.0,5.0,51,0.00,,,0.00,Wunderground v.1.13,2013-02-02 04:16:00,
2013-02-01 23:21:00,21.6,6.7,30.07,WNW,286,0.0,2.0,52,0.00,,,0.00,Wunderground v.1.13,2013-02-02 04:21:00,
2013-02-01 23:26:00,21.5,6.1,30.07,WNW,286,3.0,3.0,51,0.00,,,0.00,Wunderground v.1.13,2013-02-02 04:26:00,
2013-02-01 23:31:00,21.4,6.5,30.07,WNW,286,1.0,2.0,52,0.00,,,0.00,Wunderground v.1.13,2013-02-02 04:31:00,
2013-02-01 23:36:00,21.3,6.4,30.07,WNW,286,0.0,2.0,52,0.00,,,0.00,Wunderground v.1.13,2013-02-02 04:36:00,
2013-02-01 23:41:00,21.3,6.4,30.07,WNW,286,0.0,1.0,52,0.00,,,0.00,Wunderground v.1.13,2013-02-02 04:41:00,
2013-02-01 23:46:00,21.2,6.7,30.07,WNW,286,0.0,2.0,53,0.00,,,0.00,Wunderground v.1.13,2013-02-02 04:46:00,
2013-02-01 23:51:00,21.1,7.0,30.08,WNW,286,1.0,3.0,54,0.00,,,0.00,Wunderground v.1.13,2013-02-02 04:51:00,
2013-02-01 23:56:00,21.1,7.0,30.08,WNW,286,1.0,1.0,54,0.00,,,0.00,Wunderground v.1.13,2013-02-02 04:56:00,